Time;durP1;ratioP1;P1;durP2;ratioP2;P2;SDS_P1;SDS_P2;PMS_P1;PMS_P2;Temp;Humidity;BMP_temperature;BMP_pressure;BME280_temperature;BME280_humidity;BME280_pressure;Samples;Min_cycle;Max_cycle;Signal;HPM_P1;HPM_P2
2021/12/26 00:01:08;;;;;;;8.33;6.20;;;1.20;99.90;;;;;;5058471;28;20446;-43
2021/12/26 00:03:35;;;;;;;8.97;5.23;;;1.20;99.90;;;;;;5076198;28;20668;-43
2021/12/26 00:06:06;;;;;;;6.20;5.10;;;1.20;99.90;;;;;;5076323;28;20468;-42
2021/12/26 00:08:35;;;;;;;7.23;5.73;;;1.20;99.90;;;;;;5076241;28;20417;-44
2021/12/26 00:11:03;;;;;;;7.37;5.80;;;1.20;99.90;;;;;;5075905;28;20443;-43
2021/12/26 00:13:30;;;;;;;9.40;5.93;;;1.20;99.90;;;;;;5075692;28;20431;-42
2021/12/26 00:15:57;;;;;;;7.73;6.00;;;1.20;99.90;;;;;;5076045;28;20922;-44
2021/12/26 00:18:22;;;;;;;8.80;6.27;;;1.20;99.90;;;;;;5057985;28;20448;-42
2021/12/26 00:20:48;;;;;;;8.97;6.33;;;1.20;99.90;;;;;;5075995;28;20450;-43
2021/12/26 00:23:15;;;;;;;7.07;5.73;;;1.20;99.90;;;;;;5075505;28;20299;-42
2021/12/26 00:25:41;;;;;;;7.03;5.70;;;1.20;99.90;;;;;;5075533;28;20192;-44
2021/12/26 00:28:06;;;;;;;7.40;6.23;;;1.20;99.90;;;;;;5075516;28;20498;-43
2021/12/26 00:30:32;;;;;;;8.30;6.13;;;1.20;99.90;;;;;;5075573;28;20187;-42
2021/12/26 00:32:58;;;;;;;8.23;6.17;;;1.20;99.90;;;;;;5075499;28;20243;-42
2021/12/26 00:35:24;;;;;;;8.37;6.00;;;1.20;99.90;;;;;;5075699;28;20300;-44
2021/12/26 00:37:50;;;;;;;8.53;5.30;;;1.20;99.90;;;;;;5075748;28;20542;-42
2021/12/26 00:40:19;;;;;;;6.17;5.13;;;1.20;99.90;;;;;;5074913;28;20759;-43
2021/12/26 00:42:45;;;;;;;8.53;6.03;;;1.20;99.90;;;;;;5075357;28;20941;-45
2021/12/26 00:45:11;;;;;;;6.40;4.33;;;1.10;99.90;;;;;;5075620;28;20414;-41
2021/12/26 00:47:37;;;;;;;6.67;4.80;;;1.10;99.90;;;;;;5075716;28;20448;-43
2021/12/26 00:50:05;;;;;;;9.10;6.17;;;1.10;99.90;;;;;;5075746;28;20223;-42
2021/12/26 00:52:31;;;;;;;8.93;5.63;;;1.10;99.90;;;;;;5075765;28;20538;-43
2021/12/26 00:54:56;;;;;;;8.50;5.50;;;1.10;99.90;;;;;;5075434;28;20552;-43
2021/12/26 00:57:22;;;;;;;8.30;5.97;;;1.10;99.90;;;;;;5075944;28;20630;-44
2021/12/26 00:59:48;;;;;;;6.97;5.60;;;1.10;99.90;;;;;;5075221;28;20157;-42
2021/12/26 01:02:15;;;;;;;7.23;5.77;;;1.00;99.90;;;;;;5075963;28;20672;-40
2021/12/26 01:04:40;;;;;;;8.93;6.23;;;1.00;99.90;;;;;;5057840;28;20185;-42
2021/12/26 01:07:17;;;;;;;9.47;6.60;;;1.00;99.90;;;;;;5057778;28;20464;-42
2021/12/26 01:09:47;;;;;;;7.83;6.50;;;1.00;99.90;;;;;;5075203;28;20184;-43
2021/12/26 01:12:15;;;;;;;7.47;5.70;;;1.00;99.90;;;;;;5074941;28;20436;-42
2021/12/26 01:14:47;;;;;;;8.13;6.33;;;1.00;99.90;;;;;;5075204;28;20455;-44
2021/12/26 01:17:17;;;;;;;7.73;5.93;;;1.00;99.90;;;;;;5075104;28;20397;-44
2021/12/26 01:19:47;;;;;;;8.30;6.33;;;1.00;99.90;;;;;;5074610;28;20411;-43
2021/12/26 01:22:15;;;;;;;10.57;6.50;;;1.00;99.90;;;;;;5074628;28;20431;-43
2021/12/26 01:24:42;;;;;;;8.17;6.33;;;1.00;99.90;;;;;;5074559;28;20946;-42
2021/12/26 01:27:07;;;;;;;12.10;6.20;;;1.00;99.90;;;;;;5074537;28;20954;-44
2021/12/26 01:29:34;;;;;;;10.97;7.47;;;1.00;99.90;;;;;;5074620;28;20417;-44
2021/12/26 01:32:00;;;;;;;8.90;6.60;;;1.00;99.90;;;;;;5056402;28;20223;-43
2021/12/26 01:34:25;;;;;;;8.33;7.07;;;1.00;99.90;;;;;;5074246;28;20461;-43
2021/12/26 01:36:51;;;;;;;10.27;6.73;;;1.00;99.90;;;;;;5074880;28;20612;-43
2021/12/26 01:39:17;;;;;;;8.73;6.70;;;1.00;99.90;;;;;;5074287;28;20199;-44
2021/12/26 01:41:44;;;;;;;13.03;7.90;;;1.00;99.90;;;;;;5074163;28;20196;-49
2021/12/26 01:44:12;;;;;;;10.83;6.47;;;1.00;99.90;;;;;;5088959;22;20286;-46
2021/12/26 01:46:39;;;;;;;10.83;7.23;;;1.00;99.90;;;;;;5067223;28;20411;-46
2021/12/26 01:49:10;;;;;;;10.33;7.13;;;1.00;99.90;;;;;;5075450;28;20407;-47
2021/12/26 01:51:36;;;;;;;11.87;7.77;;;1.00;99.90;;;;;;5075055;28;20506;-46
2021/12/26 01:54:08;;;;;;;10.33;7.37;;;0.90;99.90;;;;;;5075664;28;20454;-46
2021/12/26 01:56:34;;;;;;;12.33;8.07;;;0.90;99.90;;;;;;5074024;28;20766;-46
2021/12/26 01:59:00;;;;;;;10.70;7.60;;;0.80;99.90;;;;;;5075059;28;20411;-47
2021/12/26 02:01:26;;;;;;;10.43;7.60;;;0.80;99.90;;;;;;5074890;28;20187;-46
2021/12/26 02:03:52;;;;;;;10.63;7.77;;;0.80;99.90;;;;;;5074827;28;20446;-45
2021/12/26 02:06:18;;;;;;;11.07;8.03;;;0.70;99.90;;;;;;5074683;28;20177;-46
2021/12/26 02:08:44;;;;;;;9.83;7.13;;;0.70;99.90;;;;;;5074955;28;20567;-45
2021/12/26 02:11:10;;;;;;;13.07;7.70;;;0.70;99.90;;;;;;5074618;28;20496;-47
2021/12/26 02:13:37;;;;;;;11.90;8.10;;;0.60;99.90;;;;;;5074793;28;20214;-47
2021/12/26 02:16:07;;;;;;;11.23;7.17;;;0.60;99.90;;;;;;5074957;28;20184;-48
2021/12/26 02:18:33;;;;;;;12.23;8.43;;;0.60;99.90;;;;;;5074480;28;20418;-46
2021/12/26 02:28:37;;;;;;;13.30;8.87;;;0.50;99.90;;;;;;5074659;28;20401;-45
2021/12/26 02:31:04;;;;;;;11.73;8.17;;;0.40;99.90;;;;;;5074840;28;20415;-46
2021/12/26 02:33:29;;;;;;;12.23;8.30;;;0.40;99.90;;;;;;5074468;28;20431;-46
2021/12/26 02:35:55;;;;;;;11.60;8.17;;;0.40;99.90;;;;;;5074235;28;20440;-47
2021/12/26 02:38:21;;;;;;;12.73;8.30;;;0.40;99.90;;;;;;5074779;28;20526;-45
2021/12/26 02:40:50;;;;;;;11.53;7.87;;;0.40;99.90;;;;;;5074502;28;20602;-46
2021/12/26 02:43:18;;;;;;;12.20;8.67;;;0.40;99.90;;;;;;5073997;28;20219;-45
2021/12/26 02:45:44;;;;;;;12.23;8.57;;;0.30;99.90;;;;;;5074655;28;20387;-45
2021/12/26 02:48:10;;;;;;;11.53;7.60;;;0.40;99.90;;;;;;5073058;28;20452;-48
2021/12/26 02:50:38;;;;;;;13.30;8.93;;;0.30;99.90;;;;;;5074431;28;20189;-46
2021/12/26 02:53:05;;;;;;;12.30;8.33;;;0.30;99.90;;;;;;5074149;28;20438;-45
2021/12/26 02:55:31;;;;;;;13.07;8.10;;;0.30;99.90;;;;;;5074112;28;20499;-46
2021/12/26 02:58:00;;;;;;;12.83;9.20;;;0.30;99.90;;;;;;5073259;28;20422;-48
2021/12/26 03:00:30;;;;;;;13.50;8.60;;;0.30;99.90;;;;;;5074494;28;20263;-44
2021/12/26 03:02:58;;;;;;;11.83;7.33;;;0.30;99.90;;;;;;5074825;28;20442;-45
2021/12/26 03:05:32;;;;;;;14.37;8.40;;;0.30;99.90;;;;;;5078593;28;21015;-47
2021/12/26 03:07:58;;;;;;;11.80;8.47;;;0.30;99.90;;;;;;5078808;28;20416;-47
2021/12/26 03:10:25;;;;;;;13.03;9.27;;;0.40;99.90;;;;;;5077682;28;20504;-47
2021/12/26 03:13:01;;;;;;;14.53;9.27;;;0.40;99.90;;;;;;5078938;28;20200;-47
2021/12/26 03:15:28;;;;;;;14.03;9.73;;;0.40;99.90;;;;;;5076704;28;20983;-47
2021/12/26 03:17:56;;;;;;;15.17;9.80;;;0.50;99.90;;;;;;5077891;28;20437;-47
2021/12/26 03:20:26;;;;;;;15.50;10.37;;;0.50;99.90;;;;;;5077982;28;20448;-47
2021/12/26 03:22:52;;;;;;;14.80;8.87;;;0.50;99.90;;;;;;5077999;28;20782;-47
2021/12/26 03:25:22;;;;;;;11.13;7.07;;;0.60;99.90;;;;;;5076555;28;20426;-48
2021/12/26 03:27:49;;;;;;;14.37;9.70;;;0.60;99.90;;;;;;5078579;28;20545;-46
2021/12/26 03:30:18;;;;;;;17.50;9.00;;;0.70;99.90;;;;;;5078122;28;20497;-46
2021/12/26 03:32:44;;;;;;;12.83;9.20;;;0.70;99.90;;;;;;5077570;28;20528;-46
2021/12/26 03:35:10;;;;;;;12.30;8.27;;;0.70;99.90;;;;;;5078172;28;20453;-47
2021/12/26 03:37:38;;;;;;;14.67;9.43;;;0.70;99.90;;;;;;5078143;28;20995;-46
2021/12/26 03:40:05;;;;;;;15.17;10.37;;;0.80;99.90;;;;;;5076525;28;20882;-44
2021/12/26 03:42:31;;;;;;;13.90;9.03;;;0.80;99.90;;;;;;5077527;28;20460;-46
2021/12/26 03:44:58;;;;;;;14.23;9.23;;;0.80;99.90;;;;;;5077918;28;20536;-47
2021/12/26 03:47:23;;;;;;;14.20;9.70;;;0.80;99.90;;;;;;5077629;28;20844;-46
2021/12/26 03:49:50;;;;;;;15.30;9.43;;;0.90;99.90;;;;;;5077406;28;20437;-46
2021/12/26 03:52:16;;;;;;;14.53;10.33;;;0.90;99.90;;;;;;5075619;28;20208;-46
2021/12/26 03:54:41;;;;;;;17.40;9.97;;;0.90;99.90;;;;;;5077188;28;20477;-46
2021/12/26 03:57:07;;;;;;;17.47;9.90;;;0.90;99.90;;;;;;5077274;28;20206;-46
2021/12/26 03:59:33;;;;;;;13.10;9.60;;;0.90;99.90;;;;;;5077283;28;20242;-46
2021/12/26 04:01:58;;;;;;;16.60;10.67;;;0.90;99.90;;;;;;5077294;28;20216;-48
2021/12/26 04:04:25;;;;;;;13.17;9.43;;;0.90;99.90;;;;;;5077255;28;20194;-46
2021/12/26 04:06:50;;;;;;;16.80;9.83;;;0.90;99.90;;;;;;5077108;28;20185;-47
2021/12/26 04:09:16;;;;;;;14.50;9.00;;;0.90;99.90;;;;;;5077434;28;20440;-46
2021/12/26 04:11:44;;;;;;;19.67;9.90;;;0.90;99.90;;;;;;5077259;28;20210;-45
2021/12/26 04:14:11;;;;;;;12.77;9.00;;;1.00;99.90;;;;;;5076531;28;20203;-48
2021/12/26 04:16:37;;;;;;;15.60;10.60;;;1.00;99.90;;;;;;5078937;28;20427;-46
2021/12/26 04:19:03;;;;;;;15.80;10.17;;;1.00;99.90;;;;;;5097186;28;20496;-47
2021/12/26 04:21:28;;;;;;;15.80;10.33;;;1.00;99.90;;;;;;5096950;28;20175;-46
2021/12/26 04:23:54;;;;;;;13.90;9.80;;;1.00;99.90;;;;;;5096872;28;20413;-45
2021/12/26 04:26:20;;;;;;;15.37;9.80;;;1.00;99.90;;;;;;5078768;28;20194;-47
2021/12/26 04:28:45;;;;;;;14.73;10.53;;;1.00;99.90;;;;;;5096967;28;20183;-46
2021/12/26 04:31:11;;;;;;;13.53;9.43;;;1.00;99.90;;;;;;5096664;28;20187;-47
2021/12/26 04:33:37;;;;;;;15.43;10.17;;;1.00;99.90;;;;;;5096748;28;20255;-46
2021/12/26 04:36:03;;;;;;;14.40;9.47;;;1.10;99.90;;;;;;5097075;28;20167;-48
2021/12/26 04:38:28;;;;;;;12.93;9.03;;;1.10;99.90;;;;;;5096463;28;20320;-47
2021/12/26 04:40:54;;;;;;;17.17;9.37;;;1.10;99.90;;;;;;5096907;28;20464;-46
2021/12/26 04:43:21;;;;;;;14.97;10.77;;;1.10;99.90;;;;;;5096519;28;20207;-46
2021/12/26 04:45:47;;;;;;;15.77;10.57;;;1.10;99.90;;;;;;5096890;28;20170;-45
2021/12/26 04:48:14;;;;;;;17.33;11.13;;;1.10;99.90;;;;;;5096757;28;20834;-46
2021/12/26 04:50:40;;;;;;;16.77;10.97;;;1.10;99.90;;;;;;5096822;28;20183;-45
2021/12/26 04:53:06;;;;;;;17.60;11.50;;;1.10;99.90;;;;;;5078361;28;20484;-47
2021/12/26 04:55:31;;;;;;;15.63;11.50;;;1.10;99.90;;;;;;5096496;28;20885;-46
2021/12/26 04:57:58;;;;;;;17.90;11.30;;;1.10;99.90;;;;;;5096489;28;20224;-47
2021/12/26 05:00:27;;;;;;;17.53;11.90;;;1.10;99.90;;;;;;5096341;28;20222;-46
2021/12/26 05:02:53;;;;;;;20.03;11.87;;;1.10;99.90;;;;;;5096677;28;20523;-47
2021/12/26 05:05:20;;;;;;;15.53;10.50;;;1.10;99.90;;;;;;5096581;28;20426;-47
2021/12/26 05:07:46;;;;;;;15.03;10.50;;;1.10;99.90;;;;;;5096404;28;20424;-47
2021/12/26 05:10:14;;;;;;;16.07;10.57;;;1.20;99.90;;;;;;5095876;28;20456;-49
2021/12/26 05:12:40;;;;;;;12.80;8.87;;;1.10;99.90;;;;;;5096864;28;20439;-47
2021/12/26 05:15:08;;;;;;;11.00;7.57;;;1.10;99.90;;;;;;5096518;28;20449;-47
2021/12/26 05:17:34;;;;;;;16.07;10.50;;;1.10;99.90;;;;;;5097011;28;20197;-47
2021/12/26 05:19:59;;;;;;;14.60;9.73;;;1.10;99.90;;;;;;5096694;28;20412;-47
2021/12/26 05:22:25;;;;;;;14.50;9.37;;;1.10;99.90;;;;;;5096632;28;20216;-47
2021/12/26 05:24:51;;;;;;;17.37;11.27;;;1.10;99.90;;;;;;5096574;28;20230;-46
2021/12/26 05:27:17;;;;;;;16.13;10.93;;;1.10;99.90;;;;;;5095557;28;20189;-45
2021/12/26 05:29:42;;;;;;;16.40;10.97;;;1.20;99.90;;;;;;5096236;28;20193;-46
2021/12/26 05:32:08;;;;;;;15.13;10.73;;;1.10;99.90;;;;;;5096742;28;20203;-46
2021/12/26 05:34:34;;;;;;;16.03;9.97;;;1.10;99.90;;;;;;5096049;28;20562;-46
2021/12/26 05:37:00;;;;;;;14.87;10.63;;;1.10;99.90;;;;;;5096108;28;20209;-44
2021/12/26 05:39:26;;;;;;;16.87;9.53;;;1.10;99.90;;;;;;5096352;28;20778;-45
2021/12/26 05:41:51;;;;;;;14.37;8.90;;;1.10;99.90;;;;;;5095912;28;20195;-45
2021/12/26 05:44:17;;;;;;;11.97;7.90;;;1.20;99.90;;;;;;5061314;28;20198;-48
2021/12/26 05:46:43;;;;;;;13.30;9.30;;;1.20;99.90;;;;;;5077640;28;20220;-46
2021/12/26 05:49:09;;;;;;;15.90;10.57;;;1.20;99.90;;;;;;5095514;28;20184;-47
2021/12/26 05:51:35;;;;;;;13.57;8.37;;;1.20;99.90;;;;;;5095672;28;20478;-47
2021/12/26 05:54:00;;;;;;;17.90;11.10;;;1.20;99.90;;;;;;5095381;28;20202;-47
2021/12/26 05:56:26;;;;;;;15.23;10.17;;;1.20;99.90;;;;;;5095692;28;20177;-47
2021/12/26 05:58:52;;;;;;;16.73;10.57;;;1.20;99.90;;;;;;5095842;28;20180;-46
2021/12/26 06:01:17;;;;;;;14.27;9.83;;;1.20;99.90;;;;;;5095531;28;20180;-46
2021/12/26 06:03:43;;;;;;;16.90;10.17;;;1.20;99.90;;;;;;5095967;28;20619;-47
2021/12/26 06:06:08;;;;;;;14.23;8.90;;;1.20;99.90;;;;;;5095541;28;20236;-45
2021/12/26 06:08:34;;;;;;;17.57;11.20;;;1.20;99.90;;;;;;5095463;28;20211;-47
2021/12/26 06:11:00;;;;;;;18.13;11.40;;;1.20;99.90;;;;;;5095867;28;20175;-45
2021/12/26 06:13:26;;;;;;;18.13;11.60;;;1.20;99.90;;;;;;5095286;28;20218;-48
2021/12/26 06:15:51;;;;;;;18.57;11.87;;;1.20;99.90;;;;;;5095427;28;20183;-48
2021/12/26 06:18:17;;;;;;;18.87;11.10;;;1.20;99.90;;;;;;5095732;28;20186;-46
2021/12/26 06:20:42;;;;;;;18.57;11.20;;;1.20;99.90;;;;;;5077010;28;20180;-46
2021/12/26 06:23:09;;;;;;;18.77;10.90;;;1.20;99.90;;;;;;5095519;28;20241;-46
2021/12/26 06:25:35;;;;;;;16.27;10.37;;;1.20;99.90;;;;;;5095523;28;20179;-46
2021/12/26 06:28:01;;;;;;;16.03;11.17;;;1.30;99.90;;;;;;5095168;28;20463;-46
2021/12/26 06:30:27;;;;;;;16.87;10.80;;;1.20;99.90;;;;;;5095446;28;20463;-47
2021/12/26 06:32:53;;;;;;;18.83;11.80;;;1.20;99.90;;;;;;5095917;28;20835;-47
2021/12/26 06:35:19;;;;;;;21.50;12.00;;;1.30;99.90;;;;;;5095144;28;20205;-47
2021/12/26 06:37:44;;;;;;;20.40;12.03;;;1.30;99.90;;;;;;5076773;28;20232;-45
2021/12/26 06:40:12;;;;;;;20.13;11.83;;;1.30;99.90;;;;;;5094908;28;20191;-45
2021/12/26 06:42:43;;;;;;;17.07;11.80;;;1.30;99.90;;;;;;5094664;28;20201;-46
2021/12/26 06:45:15;;;;;;;14.07;9.90;;;1.30;99.90;;;;;;5094566;28;20442;-44
2021/12/26 06:47:45;;;;;;;19.47;11.77;;;1.30;99.90;;;;;;5076911;28;20432;-47
2021/12/26 06:50:11;;;;;;;18.20;11.30;;;1.30;99.90;;;;;;5094812;28;20417;-46
2021/12/26 06:52:37;;;;;;;18.37;11.17;;;1.30;99.90;;;;;;5094614;28;20488;-46
2021/12/26 06:55:05;;;;;;;21.17;12.43;;;1.30;99.90;;;;;;5076301;28;20981;-46
2021/12/26 06:57:31;;;;;;;14.80;8.73;;;1.30;99.90;;;;;;5094183;28;20194;-47
2021/12/26 06:59:56;;;;;;;17.00;10.63;;;1.30;99.90;;;;;;5094531;28;20423;-46
2021/12/26 07:02:22;;;;;;;20.07;12.17;;;1.30;99.90;;;;;;5094491;28;20605;-47
2021/12/26 07:04:47;;;;;;;19.80;11.50;;;1.30;99.90;;;;;;5094437;28;20208;-46
2021/12/26 07:07:13;;;;;;;18.50;11.30;;;1.40;99.90;;;;;;5094341;28;20240;-48
2021/12/26 07:09:42;;;;;;;19.00;11.57;;;1.30;99.90;;;;;;5094472;28;20222;-48
2021/12/26 07:12:09;;;;;;;19.50;11.90;;;1.30;99.90;;;;;;5094226;28;20461;-45
2021/12/26 07:14:34;;;;;;;16.20;10.47;;;1.40;99.90;;;;;;5094363;28;20511;-46
2021/12/26 07:17:00;;;;;;;16.73;10.87;;;1.40;99.90;;;;;;5075951;28;20417;-46
2021/12/26 07:19:25;;;;;;;21.27;12.77;;;1.40;99.90;;;;;;5095009;28;20190;-47
2021/12/26 07:21:51;;;;;;;16.53;10.33;;;1.40;99.90;;;;;;5095037;28;20655;-46
2021/12/26 07:24:16;;;;;;;19.03;12.57;;;1.40;99.90;;;;;;5095093;28;20159;-47
2021/12/26 07:26:42;;;;;;;21.03;12.23;;;1.40;99.90;;;;;;5095208;28;20187;-48
2021/12/26 07:29:08;;;;;;;18.50;11.97;;;1.40;99.90;;;;;;5076536;28;20218;-46
2021/12/26 07:31:33;;;;;;;17.83;11.53;;;1.40;99.90;;;;;;5094841;28;20195;-47
2021/12/26 07:33:59;;;;;;;20.57;12.93;;;1.40;99.90;;;;;;5094367;28;20282;-45
2021/12/26 07:36:24;;;;;;;20.20;12.67;;;1.40;99.90;;;;;;5094764;28;20159;-48
2021/12/26 07:38:51;;;;;;;18.80;12.00;;;1.40;99.90;;;;;;5094745;28;20187;-46
2021/12/26 07:41:17;;;;;;;20.40;12.93;;;1.40;99.90;;;;;;5094696;28;20179;-45
2021/12/26 07:43:42;;;;;;;19.60;12.90;;;1.40;99.90;;;;;;5094675;28;20445;-47
2021/12/26 07:46:08;;;;;;;20.77;12.97;;;1.40;99.90;;;;;;5095251;28;20603;-47
2021/12/26 07:48:33;;;;;;;23.10;13.43;;;1.50;99.90;;;;;;5094233;28;20207;-45
2021/12/26 07:50:59;;;;;;;18.97;11.87;;;1.50;99.90;;;;;;5097341;28;20237;-47
2021/12/26 07:53:25;;;;;;;24.37;13.77;;;1.50;99.90;;;;;;5098096;28;20188;-47
2021/12/26 07:55:50;;;;;;;25.23;13.13;;;1.40;99.90;;;;;;5098719;28;20231;-45
2021/12/26 07:58:16;;;;;;;19.13;11.30;;;1.50;99.90;;;;;;5098044;28;20615;-46
2021/12/26 08:00:42;;;;;;;21.93;13.00;;;1.50;99.90;;;;;;5098264;28;20171;-46
2021/12/26 08:03:08;;;;;;;24.43;13.47;;;1.50;99.90;;;;;;5079887;28;20567;-46
2021/12/26 08:05:33;;;;;;;18.23;11.37;;;1.50;99.90;;;;;;5098117;28;20202;-46
2021/12/26 08:07:59;;;;;;;22.67;13.90;;;1.50;99.90;;;;;;5098089;28;20756;-46
2021/12/26 08:10:25;;;;;;;19.70;12.27;;;1.50;99.90;;;;;;5097897;28;20171;-46
2021/12/26 08:12:50;;;;;;;22.07;13.53;;;1.60;99.90;;;;;;5098020;28;20200;-46
2021/12/26 08:15:16;;;;;;;18.97;12.13;;;1.60;99.90;;;;;;5097894;28;20200;-47
2021/12/26 08:17:42;;;;;;;20.57;12.77;;;1.60;99.90;;;;;;5097603;28;20233;-47
2021/12/26 08:20:08;;;;;;;18.53;12.27;;;1.60;99.90;;;;;;5097989;28;20175;-46
2021/12/26 08:22:34;;;;;;;19.57;12.63;;;1.60;99.90;;;;;;5097666;28;20203;-46
2021/12/26 08:24:59;;;;;;;21.10;12.83;;;1.60;99.90;;;;;;5097911;28;20425;-48
2021/12/26 08:27:25;;;;;;;20.83;12.57;;;1.60;99.90;;;;;;5079383;28;20191;-46
2021/12/26 08:29:51;;;;;;;21.33;13.10;;;1.70;99.90;;;;;;5079200;28;20211;-46
2021/12/26 08:32:18;;;;;;;19.77;12.07;;;1.70;99.90;;;;;;5097243;28;20294;-45
2021/12/26 08:34:45;;;;;;;23.20;13.27;;;1.70;99.90;;;;;;5097368;28;20198;-46
2021/12/26 08:37:13;;;;;;;17.67;10.40;;;1.70;99.90;;;;;;5079726;28;20422;-45
2021/12/26 08:39:41;;;;;;;23.00;13.23;;;1.70;99.90;;;;;;5079077;28;20496;-48
2021/12/26 08:42:08;;;;;;;22.07;13.63;;;1.70;99.90;;;;;;5097455;28;20510;-46
2021/12/26 08:44:35;;;;;;;22.03;13.23;;;1.80;99.90;;;;;;5079341;28;20495;-47
2021/12/26 08:47:02;;;;;;;22.43;13.17;;;1.80;99.90;;;;;;5078645;28;20461;-46
2021/12/26 08:49:27;;;;;;;20.10;13.47;;;1.80;99.90;;;;;;5097013;28;20504;-47
2021/12/26 08:51:53;;;;;;;21.83;13.37;;;1.80;99.90;;;;;;5097303;28;20813;-47
2021/12/26 08:54:22;;;;;;;24.53;15.23;;;1.90;99.90;;;;;;5096759;28;20259;-46
2021/12/26 08:56:48;;;;;;;23.77;14.23;;;1.90;99.90;;;;;;5096815;28;20224;-46
2021/12/26 08:59:14;;;;;;;21.00;13.30;;;1.90;99.90;;;;;;5096901;28;20921;-46
2021/12/26 09:01:41;;;;;;;20.50;12.13;;;1.90;99.90;;;;;;5096110;28;20184;-47
2021/12/26 09:04:08;;;;;;;20.90;13.73;;;2.00;99.90;;;;;;5096772;28;20227;-45
2021/12/26 09:06:34;;;;;;;20.63;12.40;;;2.00;99.90;;;;;;5096928;28;20472;-46
2021/12/26 09:09:00;;;;;;;21.90;12.53;;;2.00;99.90;;;;;;5096732;28;20421;-47
2021/12/26 09:11:25;;;;;;;16.90;10.13;;;2.00;99.90;;;;;;5096663;28;20628;-46
2021/12/26 09:13:51;;;;;;;19.83;12.87;;;2.00;99.90;;;;;;5061874;28;20196;-46
2021/12/26 09:16:17;;;;;;;20.33;11.73;;;2.10;99.90;;;;;;5097003;28;20202;-45
2021/12/26 09:18:42;;;;;;;21.27;13.10;;;2.10;99.90;;;;;;5097543;28;20181;-48
2021/12/26 09:21:08;;;;;;;23.07;12.73;;;2.10;99.90;;;;;;5078296;28;20184;-46
2021/12/26 09:23:34;;;;;;;18.63;12.23;;;2.10;99.90;;;;;;5095796;28;20250;-45
2021/12/26 09:25:59;;;;;;;20.83;11.77;;;2.10;99.90;;;;;;5096067;28;20202;-46
2021/12/26 09:28:25;;;;;;;17.97;11.23;;;2.10;99.90;;;;;;5098481;22;20699;-49
2021/12/26 09:30:51;;;;;;;16.40;11.00;;;2.20;99.90;;;;;;5074671;28;20214;-47
2021/12/26 09:33:19;;;;;;;18.70;12.77;;;2.30;99.90;;;;;;5074349;28;20440;-47
2021/12/26 09:35:49;;;;;;;19.10;12.20;;;2.30;99.90;;;;;;5075897;28;20295;-43
2021/12/26 09:38:16;;;;;;;20.20;11.70;;;2.30;99.90;;;;;;5074561;28;20384;-43
2021/12/26 09:40:42;;;;;;;20.37;13.83;;;2.30;99.90;;;;;;5074461;28;20407;-43
2021/12/26 09:43:07;;;;;;;18.97;11.83;;;2.40;99.90;;;;;;5074114;28;20449;-43
2021/12/26 09:45:33;;;;;;;21.80;12.07;;;2.40;99.90;;;;;;5074356;28;20190;-43
2021/12/26 09:47:59;;;;;;;19.23;12.23;;;2.40;99.90;;;;;;5074166;28;20661;-43
2021/12/26 09:50:25;;;;;;;19.63;12.00;;;2.40;99.90;;;;;;5074006;28;20191;-43
2021/12/26 09:52:55;;;;;;;23.20;13.53;;;2.50;99.90;;;;;;5072715;28;20196;-42
2021/12/26 09:55:25;;;;;;;18.57;10.40;;;2.50;99.90;;;;;;5074041;28;20198;-42
2021/12/26 09:57:51;;;;;;;18.03;12.37;;;2.50;99.90;;;;;;5074225;28;20168;-45
2021/12/26 10:00:38;;;;;;;14.27;8.93;;;2.60;99.90;;;;;;5073866;28;20495;-44
2021/12/26 10:03:07;;;;;;;19.00;11.73;;;2.60;99.90;;;;;;5074237;28;20712;-45
2021/12/26 10:05:56;;;;;;;18.23;11.10;;;2.60;99.90;;;;;;5072447;28;20427;-45
2021/12/26 10:08:22;;;;;;;12.80;7.83;;;2.70;99.90;;;;;;5074098;28;20167;-45
2021/12/26 10:11:16;;;;;;;18.87;11.87;;;2.80;99.90;;;;;;5073692;28;20526;-43
2021/12/26 10:13:45;;;;;;;17.90;10.77;;;2.80;99.90;;;;;;5073192;28;20256;-43
2021/12/26 10:16:14;;;;;;;19.97;12.77;;;2.80;99.90;;;;;;5073543;28;20407;-44
2021/12/26 10:18:40;;;;;;;16.60;10.97;;;2.90;99.90;;;;;;5072372;28;20515;-43
2021/12/26 10:21:28;;;;;;;18.83;11.37;;;2.90;99.90;;;;;;5073699;28;20459;-43
2021/12/26 10:23:56;;;;;;;19.17;11.50;;;2.90;99.90;;;;;;5073768;28;20404;-45
2021/12/26 10:26:26;;;;;;;22.00;12.50;;;3.00;99.90;;;;;;5073517;28;20187;-43
2021/12/26 10:29:12;;;;;;;18.20;11.90;;;3.00;99.90;;;;;;5073285;28;20197;-42
2021/12/26 10:31:48;;;;;;;19.90;12.33;;;3.10;99.90;;;;;;5073221;28;20194;-46
2021/12/26 10:34:34;;;;;;;21.50;12.30;;;3.10;99.90;;;;;;5073525;28;20197;-45
2021/12/26 10:37:03;;;;;;;18.83;11.00;;;3.10;99.90;;;;;;5073575;28;20194;-43
2021/12/26 10:39:31;;;;;;;20.30;11.23;;;3.20;99.90;;;;;;5073351;28;20683;-42
2021/12/26 10:42:04;;;;;;;20.70;11.20;;;3.20;99.90;;;;;;5073607;28;20245;-44
2021/12/26 10:44:34;;;;;;;19.60;13.17;;;3.30;99.90;;;;;;5073529;28;20261;-43
2021/12/26 10:47:07;;;;;;;19.17;12.57;;;3.30;99.90;;;;;;5073224;28;20705;-43
2021/12/26 10:49:42;;;;;;;21.77;13.87;;;3.40;99.90;;;;;;5073469;28;20587;-43
2021/12/26 10:52:21;;;;;;;19.07;12.73;;;3.40;99.90;;;;;;5073060;28;20296;-43
2021/12/26 10:55:04;;;;;;;18.90;10.93;;;3.40;99.90;;;;;;5073326;28;20206;-44
2021/12/26 10:57:35;;;;;;;23.37;14.17;;;3.50;99.90;;;;;;5072698;28;20170;-43
2021/12/26 11:00:07;;;;;;;20.20;12.70;;;3.50;99.90;;;;;;5072884;28;20230;-47
2021/12/26 11:02:34;;;;;;;20.10;13.13;;;3.50;99.90;;;;;;5073295;28;20229;-44
2021/12/26 11:05:14;;;;;;;23.40;14.37;;;3.50;99.90;;;;;;5073088;28;20225;-44
2021/12/26 11:07:46;;;;;;;22.63;13.97;;;3.60;99.90;;;;;;5071757;28;20221;-45
2021/12/26 11:10:14;;;;;;;23.63;13.90;;;3.60;99.90;;;;;;5073555;28;20254;-46
2021/12/26 11:12:51;;;;;;;22.70;13.93;;;3.70;99.90;;;;;;5071559;28;20203;-44
2021/12/26 11:15:18;;;;;;;24.37;14.03;;;3.70;99.90;;;;;;5073148;28;20199;-45
2021/12/26 11:17:59;;;;;;;23.33;14.20;;;3.70;99.90;;;;;;5073180;28;20174;-46
2021/12/26 11:20:30;;;;;;;23.77;12.33;;;3.70;99.90;;;;;;5073196;28;20576;-45
2021/12/26 11:22:56;;;;;;;13.73;7.43;;;3.70;99.90;;;;;;5072888;28;20663;-45
2021/12/26 11:25:23;;;;;;;22.30;12.23;;;3.70;99.90;;;;;;5076807;28;20305;-44
2021/12/26 11:27:49;;;;;;;21.67;12.23;;;3.80;99.90;;;;;;5076562;28;20206;-43
2021/12/26 11:30:15;;;;;;;21.23;12.53;;;3.80;99.90;;;;;;5076835;28;20183;-44
2021/12/26 11:32:42;;;;;;;22.10;13.80;;;3.80;99.90;;;;;;5077302;28;20562;-42
2021/12/26 11:35:09;;;;;;;20.93;14.40;;;3.80;99.90;;;;;;5076761;28;20199;-44
2021/12/26 11:37:37;;;;;;;21.00;13.20;;;3.90;99.90;;;;;;5077342;28;20176;-46
2021/12/26 11:40:05;;;;;;;28.37;15.87;;;3.90;99.90;;;;;;5077601;28;20186;-46
2021/12/26 11:42:33;;;;;;;21.40;14.13;;;3.90;99.90;;;;;;5076975;28;20210;-45
2021/12/26 11:45:19;;;;;;;19.03;13.03;;;4.00;99.90;;;;;;5076380;28;20271;-43
2021/12/26 11:48:23;;;;;;;20.40;13.87;;;4.00;99.90;;;;;;5076455;28;20229;-42
2021/12/26 11:51:10;;;;;;;19.73;11.97;;;4.00;99.90;;;;;;5075049;28;20186;-44
2021/12/26 11:53:59;;;;;;;20.80;13.73;;;4.00;99.90;;;;;;5076450;28;20210;-42
2021/12/26 11:56:49;;;;;;;22.40;14.30;;;4.00;99.90;;;;;;5076738;28;20160;-42
2021/12/26 11:59:26;;;;;;;20.03;13.27;;;4.00;99.90;;;;;;5076269;28;20160;-44
2021/12/26 12:01:52;;;;;;;21.27;13.23;;;4.10;99.90;;;;;;5076003;28;20532;-44
2021/12/26 12:04:21;;;;;;;22.37;13.77;;;4.00;99.90;;;;;;5076062;28;20183;-43
2021/12/26 12:06:50;;;;;;;20.20;13.13;;;4.10;99.90;;;;;;5076058;28;20552;-45
2021/12/26 12:09:26;;;;;;;22.93;13.87;;;4.10;99.90;;;;;;5075770;28;20183;-44
2021/12/26 12:12:14;;;;;;;21.23;12.27;;;4.10;99.90;;;;;;5075821;28;20333;-44
2021/12/26 12:14:57;;;;;;;21.27;13.87;;;4.10;99.90;;;;;;5076119;28;20321;-43
2021/12/26 12:17:26;;;;;;;21.17;11.87;;;4.10;99.90;;;;;;5075778;28;20175;-43
2021/12/26 12:20:10;;;;;;;24.00;15.20;;;4.20;99.90;;;;;;5074489;28;20237;-44
2021/12/26 12:22:38;;;;;;;24.97;14.73;;;4.20;99.90;;;;;;5067433;28;20688;-43
2021/12/26 12:25:31;;;;;;;19.13;12.53;;;4.20;99.90;;;;;;5075974;28;20186;-43
2021/12/26 12:28:09;;;;;;;21.20;12.50;;;4.20;99.90;;;;;;5075483;28;20196;-45
2021/12/26 12:30:37;;;;;;;19.77;13.00;;;4.20;99.90;;;;;;5075797;28;20230;-44
2021/12/26 12:33:19;;;;;;;17.20;12.67;;;4.20;99.90;;;;;;5075732;28;20670;-43
2021/12/26 12:35:59;;;;;;;20.67;13.03;;;4.20;99.90;;;;;;5074854;28;20215;-42
2021/12/26 12:38:31;;;;;;;19.97;12.77;;;4.20;99.90;;;;;;5075490;28;20206;-45
2021/12/26 12:40:58;;;;;;;22.70;11.70;;;4.30;99.90;;;;;;5075933;28;20168;-42
2021/12/26 12:43:27;;;;;;;21.80;12.93;;;4.30;99.90;;;;;;5075227;28;20192;-46
2021/12/26 12:45:57;;;;;;;23.33;14.00;;;4.30;99.90;;;;;;5075266;28;20202;-42
2021/12/26 12:48:44;;;;;;;18.73;12.20;;;4.30;99.90;;;;;;5075259;28;20175;-43
2021/12/26 12:51:16;;;;;;;19.27;12.20;;;4.40;99.90;;;;;;5075709;28;20225;-43
2021/12/26 12:53:50;;;;;;;21.07;12.80;;;4.40;99.90;;;;;;5075055;28;20203;-43
2021/12/26 12:56:35;;;;;;;20.30;13.77;;;4.40;99.90;;;;;;5075293;28;20182;-45